sensor_id;sensor_type;location;lat;lon;timestamp;P1;durP1;ratioP1;P2;durP2;ratioP2
19036;SDS011;9651;49.138;8.900;2023-02-10T00:00:36;30.10;;;13.93;;
19036;SDS011;9651;49.138;8.900;2023-02-10T00:04:39;32.97;;;15.13;;
19036;SDS011;9651;49.138;8.900;2023-02-10T00:08:41;33.80;;;14.20;;
19036;SDS011;9651;49.138;8.900;2023-02-10T00:12:46;32.23;;;13.37;;
19036;SDS011;9651;49.138;8.900;2023-02-10T00:16:49;35.10;;;15.23;;
19036;SDS011;9651;49.138;8.900;2023-02-10T00:20:53;27.30;;;13.50;;
19036;SDS011;9651;49.138;8.900;2023-02-10T00:24:55;32.30;;;15.73;;
19036;SDS011;9651;49.138;8.900;2023-02-10T00:28:57;33.57;;;15.60;;
19036;SDS011;9651;49.138;8.900;2023-02-10T00:32:59;32.27;;;15.63;;
19036;SDS011;9651;49.138;8.900;2023-02-10T00:37:02;34.50;;;15.87;;
19036;SDS011;9651;49.138;8.900;2023-02-10T00:41:05;35.90;;;15.97;;
19036;SDS011;9651;49.138;8.900;2023-02-10T00:45:07;33.47;;;16.40;;
19036;SDS011;9651;49.138;8.900;2023-02-10T00:49:10;39.20;;;16.57;;
19036;SDS011;9651;49.138;8.900;2023-02-10T00:53:14;43.57;;;16.90;;
19036;SDS011;9651;49.138;8.900;2023-02-10T00:57:16;39.87;;;17.13;;
19036;SDS011;9651;49.138;8.900;2023-02-10T01:01:17;34.70;;;16.80;;
19036;SDS011;9651;49.138;8.900;2023-02-10T01:05:20;31.50;;;15.97;;
19036;SDS011;9651;49.138;8.900;2023-02-10T01:09:24;39.97;;;17.73;;
19036;SDS011;9651;49.138;8.900;2023-02-10T01:13:26;35.63;;;15.80;;
19036;SDS011;9651;49.138;8.900;2023-02-10T01:17:28;37.70;;;17.97;;
19036;SDS011;9651;49.138;8.900;2023-02-10T01:21:31;33.03;;;15.43;;
19036;SDS011;9651;49.138;8.900;2023-02-10T01:25:34;38.10;;;16.77;;
19036;SDS011;9651;49.138;8.900;2023-02-10T01:29:37;35.13;;;17.43;;
19036;SDS011;9651;49.138;8.900;2023-02-10T01:33:39;39.13;;;16.17;;
19036;SDS011;9651;49.138;8.900;2023-02-10T01:37:41;44.07;;;15.70;;
19036;SDS011;9651;49.138;8.900;2023-02-10T01:41:44;39.17;;;17.33;;
19036;SDS011;9651;49.138;8.900;2023-02-10T01:45:46;35.50;;;15.93;;
19036;SDS011;9651;49.138;8.900;2023-02-10T01:49:48;35.47;;;16.07;;
19036;SDS011;9651;49.138;8.900;2023-02-10T01:53:51;36.97;;;16.53;;
19036;SDS011;9651;49.138;8.900;2023-02-10T01:57:56;40.37;;;18.47;;
19036;SDS011;9651;49.138;8.900;2023-02-10T02:01:57;42.07;;;18.50;;
19036;SDS011;9651;49.138;8.900;2023-02-10T02:06:06;40.20;;;16.93;;
19036;SDS011;9651;49.138;8.900;2023-02-10T02:10:08;44.00;;;18.10;;
19036;SDS011;9651;49.138;8.900;2023-02-10T02:14:15;39.37;;;17.30;;
19036;SDS011;9651;49.138;8.900;2023-02-10T02:18:27;44.13;;;18.07;;
19036;SDS011;9651;49.138;8.900;2023-02-10T02:22:40;41.23;;;17.23;;
19036;SDS011;9651;49.138;8.900;2023-02-10T02:27:19;37.17;;;16.27;;
19036;SDS011;9651;49.138;8.900;2023-02-10T02:31:52;43.87;;;18.27;;
19036;SDS011;9651;49.138;8.900;2023-02-10T02:36:02;44.43;;;16.87;;
19036;SDS011;9651;49.138;8.900;2023-02-10T02:40:09;47.43;;;17.27;;
19036;SDS011;9651;49.138;8.900;2023-02-10T02:44:12;48.10;;;19.40;;
19036;SDS011;9651;49.138;8.900;2023-02-10T02:48:19;44.20;;;18.50;;
19036;SDS011;9651;49.138;8.900;2023-02-10T02:52:45;45.60;;;17.47;;
19036;SDS011;9651;49.138;8.900;2023-02-10T02:56:54;49.13;;;18.00;;
19036;SDS011;9651;49.138;8.900;2023-02-10T03:01:03;48.63;;;18.77;;
19036;SDS011;9651;49.138;8.900;2023-02-10T03:05:17;43.40;;;18.13;;
19036;SDS011;9651;49.138;8.900;2023-02-10T03:09:20;50.63;;;17.87;;
19036;SDS011;9651;49.138;8.900;2023-02-10T03:13:22;40.00;;;17.87;;
19036;SDS011;9651;49.138;8.900;2023-02-10T03:17:24;40.23;;;17.20;;
19036;SDS011;9651;49.138;8.900;2023-02-10T03:21:27;58.53;;;17.17;;
19036;SDS011;9651;49.138;8.900;2023-02-10T03:25:29;49.07;;;18.30;;
19036;SDS011;9651;49.138;8.900;2023-02-10T03:29:32;51.90;;;18.73;;
19036;SDS011;9651;49.138;8.900;2023-02-10T03:33:34;38.63;;;18.50;;
19036;SDS011;9651;49.138;8.900;2023-02-10T03:37:37;41.13;;;16.80;;
19036;SDS011;9651;49.138;8.900;2023-02-10T03:41:39;40.47;;;17.30;;
19036;SDS011;9651;49.138;8.900;2023-02-10T03:45:41;38.03;;;16.37;;
19036;SDS011;9651;49.138;8.900;2023-02-10T03:49:43;39.23;;;17.43;;
19036;SDS011;9651;49.138;8.900;2023-02-10T03:53:46;37.87;;;16.47;;
19036;SDS011;9651;49.138;8.900;2023-02-10T03:57:48;29.63;;;15.17;;
19036;SDS011;9651;49.138;8.900;2023-02-10T04:01:50;39.10;;;17.70;;
19036;SDS011;9651;49.138;8.900;2023-02-10T04:05:52;39.60;;;16.23;;
19036;SDS011;9651;49.138;8.900;2023-02-10T04:09:55;42.07;;;17.37;;
19036;SDS011;9651;49.138;8.900;2023-02-10T04:13:57;44.10;;;18.10;;
19036;SDS011;9651;49.138;8.900;2023-02-10T04:17:59;42.80;;;17.67;;
19036;SDS011;9651;49.138;8.900;2023-02-10T04:22:01;41.53;;;17.47;;
19036;SDS011;9651;49.138;8.900;2023-02-10T04:26:04;40.50;;;18.37;;
19036;SDS011;9651;49.138;8.900;2023-02-10T04:30:07;41.20;;;17.33;;
19036;SDS011;9651;49.138;8.900;2023-02-10T04:34:09;39.03;;;17.20;;
19036;SDS011;9651;49.138;8.900;2023-02-10T04:38:11;47.97;;;19.33;;
19036;SDS011;9651;49.138;8.900;2023-02-10T04:42:15;42.30;;;18.30;;
19036;SDS011;9651;49.138;8.900;2023-02-10T04:46:16;36.80;;;17.77;;
19036;SDS011;9651;49.138;8.900;2023-02-10T04:50:18;37.83;;;17.17;;
19036;SDS011;9651;49.138;8.900;2023-02-10T04:54:20;40.10;;;16.80;;
19036;SDS011;9651;49.138;8.900;2023-02-10T04:58:23;39.90;;;18.07;;
19036;SDS011;9651;49.138;8.900;2023-02-10T05:02:25;38.57;;;18.27;;
19036;SDS011;9651;49.138;8.900;2023-02-10T05:06:27;52.17;;;18.17;;
19036;SDS011;9651;49.138;8.900;2023-02-10T05:10:29;44.50;;;18.77;;
19036;SDS011;9651;49.138;8.900;2023-02-10T05:14:32;45.63;;;18.90;;
19036;SDS011;9651;49.138;8.900;2023-02-10T05:18:34;37.57;;;17.23;;
19036;SDS011;9651;49.138;8.900;2023-02-10T05:22:36;42.17;;;16.93;;
19036;SDS011;9651;49.138;8.900;2023-02-10T05:26:39;41.43;;;17.30;;
19036;SDS011;9651;49.138;8.900;2023-02-10T05:30:42;40.43;;;17.00;;
19036;SDS011;9651;49.138;8.900;2023-02-10T05:34:44;42.80;;;19.83;;
19036;SDS011;9651;49.138;8.900;2023-02-10T05:38:45;43.57;;;18.50;;
19036;SDS011;9651;49.138;8.900;2023-02-10T05:43:01;45.87;;;19.43;;
19036;SDS011;9651;49.138;8.900;2023-02-10T05:47:04;39.43;;;19.27;;
19036;SDS011;9651;49.138;8.900;2023-02-10T05:51:06;53.43;;;17.50;;
19036;SDS011;9651;49.138;8.900;2023-02-10T05:55:08;47.90;;;17.17;;
19036;SDS011;9651;49.138;8.900;2023-02-10T05:59:10;40.07;;;17.10;;
19036;SDS011;9651;49.138;8.900;2023-02-10T06:03:16;45.57;;;19.37;;
19036;SDS011;9651;49.138;8.900;2023-02-10T06:07:17;47.67;;;19.50;;
19036;SDS011;9651;49.138;8.900;2023-02-10T06:11:19;49.93;;;18.37;;
19036;SDS011;9651;49.138;8.900;2023-02-10T06:15:21;47.67;;;19.30;;
19036;SDS011;9651;49.138;8.900;2023-02-10T06:19:24;44.17;;;17.87;;
19036;SDS011;9651;49.138;8.900;2023-02-10T06:23:26;36.43;;;17.33;;
19036;SDS011;9651;49.138;8.900;2023-02-10T06:27:28;40.50;;;18.60;;
19036;SDS011;9651;49.138;8.900;2023-02-10T06:31:30;36.80;;;16.03;;
19036;SDS011;9651;49.138;8.900;2023-02-10T06:35:33;32.30;;;15.40;;
19036;SDS011;9651;49.138;8.900;2023-02-10T06:39:35;40.60;;;16.20;;
19036;SDS011;9651;49.138;8.900;2023-02-10T06:43:37;39.37;;;16.43;;
19036;SDS011;9651;49.138;8.900;2023-02-10T06:47:39;37.07;;;15.53;;
19036;SDS011;9651;49.138;8.900;2023-02-10T06:51:42;46.90;;;18.03;;
19036;SDS011;9651;49.138;8.900;2023-02-10T06:55:44;42.97;;;18.47;;
19036;SDS011;9651;49.138;8.900;2023-02-10T06:59:46;38.77;;;16.73;;
19036;SDS011;9651;49.138;8.900;2023-02-10T07:03:48;39.13;;;17.60;;
19036;SDS011;9651;49.138;8.900;2023-02-10T07:07:51;41.90;;;17.07;;
19036;SDS011;9651;49.138;8.900;2023-02-10T07:11:53;45.70;;;18.03;;
19036;SDS011;9651;49.138;8.900;2023-02-10T07:15:55;42.53;;;17.13;;
19036;SDS011;9651;49.138;8.900;2023-02-10T07:19:57;38.23;;;17.93;;
19036;SDS011;9651;49.138;8.900;2023-02-10T07:24:00;40.23;;;17.23;;
19036;SDS011;9651;49.138;8.900;2023-02-10T07:28:03;40.80;;;17.57;;
19036;SDS011;9651;49.138;8.900;2023-02-10T07:32:07;51.20;;;19.23;;
19036;SDS011;9651;49.138;8.900;2023-02-10T07:36:09;47.13;;;18.67;;
19036;SDS011;9651;49.138;8.900;2023-02-10T07:40:13;42.10;;;18.17;;
19036;SDS011;9651;49.138;8.900;2023-02-10T07:44:15;46.20;;;20.27;;
19036;SDS011;9651;49.138;8.900;2023-02-10T07:48:16;47.03;;;19.93;;
19036;SDS011;9651;49.138;8.900;2023-02-10T07:52:18;42.00;;;19.83;;
19036;SDS011;9651;49.138;8.900;2023-02-10T07:56:22;52.77;;;21.10;;
19036;SDS011;9651;49.138;8.900;2023-02-10T08:00:24;52.33;;;22.40;;
19036;SDS011;9651;49.138;8.900;2023-02-10T08:04:26;61.57;;;22.50;;
19036;SDS011;9651;49.138;8.900;2023-02-10T08:08:27;44.37;;;22.33;;
19036;SDS011;9651;49.138;8.900;2023-02-10T08:12:31;42.40;;;21.50;;
19036;SDS011;9651;49.138;8.900;2023-02-10T08:16:33;43.97;;;20.53;;
19036;SDS011;9651;49.138;8.900;2023-02-10T08:20:35;45.33;;;22.37;;
19036;SDS011;9651;49.138;8.900;2023-02-10T08:24:37;42.67;;;20.67;;
19036;SDS011;9651;49.138;8.900;2023-02-10T08:28:40;53.37;;;23.57;;
19036;SDS011;9651;49.138;8.900;2023-02-10T08:32:42;57.90;;;25.60;;
19036;SDS011;9651;49.138;8.900;2023-02-10T08:36:45;53.30;;;24.80;;
19036;SDS011;9651;49.138;8.900;2023-02-10T08:40:52;52.97;;;24.30;;
19036;SDS011;9651;49.138;8.900;2023-02-10T08:44:57;43.67;;;22.57;;
19036;SDS011;9651;49.138;8.900;2023-02-10T08:48:59;57.87;;;26.30;;
19036;SDS011;9651;49.138;8.900;2023-02-10T08:53:01;51.57;;;26.20;;
19036;SDS011;9651;49.138;8.900;2023-02-10T08:57:03;54.97;;;25.07;;
19036;SDS011;9651;49.138;8.900;2023-02-10T09:01:10;50.73;;;23.87;;
19036;SDS011;9651;49.138;8.900;2023-02-10T09:05:13;55.90;;;25.47;;
19036;SDS011;9651;49.138;8.900;2023-02-10T09:09:16;50.50;;;23.80;;
19036;SDS011;9651;49.138;8.900;2023-02-10T09:13:21;42.47;;;21.63;;
19036;SDS011;9651;49.138;8.900;2023-02-10T09:17:24;46.80;;;22.23;;
19036;SDS011;9651;49.138;8.900;2023-02-10T09:21:26;25.93;;;14.37;;
19036;SDS011;9651;49.138;8.900;2023-02-10T09:25:28;36.47;;;18.50;;
19036;SDS011;9651;49.138;8.900;2023-02-10T09:29:30;36.87;;;19.70;;
19036;SDS011;9651;49.138;8.900;2023-02-10T09:33:33;36.77;;;19.67;;
19036;SDS011;9651;49.138;8.900;2023-02-10T09:37:35;40.17;;;21.30;;
19036;SDS011;9651;49.138;8.900;2023-02-10T09:41:45;37.43;;;21.37;;
19036;SDS011;9651;49.138;8.900;2023-02-10T09:45:56;32.83;;;18.30;;
19036;SDS011;9651;49.138;8.900;2023-02-10T09:50:13;33.53;;;18.17;;
19036;SDS011;9651;49.138;8.900;2023-02-10T09:54:31;35.73;;;19.70;;
19036;SDS011;9651;49.138;8.900;2023-02-10T09:58:34;35.57;;;17.60;;
19036;SDS011;9651;49.138;8.900;2023-02-10T10:02:40;37.30;;;18.83;;
19036;SDS011;9651;49.138;8.900;2023-02-10T10:06:51;34.13;;;17.87;;
19036;SDS011;9651;49.138;8.900;2023-02-10T10:10:56;34.97;;;19.13;;
19036;SDS011;9651;49.138;8.900;2023-02-10T10:15:06;36.73;;;19.73;;
19036;SDS011;9651;49.138;8.900;2023-02-10T10:19:18;34.47;;;18.27;;
19036;SDS011;9651;49.138;8.900;2023-02-10T10:23:33;33.30;;;18.73;;
19036;SDS011;9651;49.138;8.900;2023-02-10T10:27:49;33.13;;;18.67;;
19036;SDS011;9651;49.138;8.900;2023-02-10T10:31:57;36.97;;;20.90;;
19036;SDS011;9651;49.138;8.900;2023-02-10T10:36:10;32.30;;;19.10;;
19036;SDS011;9651;49.138;8.900;2023-02-10T10:40:17;34.57;;;19.43;;
19036;SDS011;9651;49.138;8.900;2023-02-10T10:44:23;33.33;;;20.30;;
19036;SDS011;9651;49.138;8.900;2023-02-10T10:48:29;33.87;;;19.77;;
19036;SDS011;9651;49.138;8.900;2023-02-10T10:52:33;35.30;;;20.33;;
19036;SDS011;9651;49.138;8.900;2023-02-10T10:56:40;31.13;;;19.43;;
19036;SDS011;9651;49.138;8.900;2023-02-10T11:00:49;32.07;;;19.00;;
19036;SDS011;9651;49.138;8.900;2023-02-10T11:05:02;29.13;;;17.33;;
19036;SDS011;9651;49.138;8.900;2023-02-10T11:09:13;35.77;;;20.97;;
19036;SDS011;9651;49.138;8.900;2023-02-10T11:13:22;35.43;;;22.27;;
19036;SDS011;9651;49.138;8.900;2023-02-10T11:17:29;33.70;;;22.17;;
19036;SDS011;9651;49.138;8.900;2023-02-10T11:21:36;33.97;;;21.37;;
19036;SDS011;9651;49.138;8.900;2023-02-10T11:25:41;31.90;;;21.17;;
19036;SDS011;9651;49.138;8.900;2023-02-10T11:29:46;33.73;;;22.60;;
19036;SDS011;9651;49.138;8.900;2023-02-10T11:33:54;33.90;;;21.60;;
19036;SDS011;9651;49.138;8.900;2023-02-10T11:37:58;33.17;;;21.33;;
19036;SDS011;9651;49.138;8.900;2023-02-10T11:42:08;29.13;;;20.40;;
19036;SDS011;9651;49.138;8.900;2023-02-10T11:46:19;32.50;;;21.55;;
19036;SDS011;9651;49.138;8.900;2023-02-10T11:50:26;29.92;;;20.10;;
19036;SDS011;9651;49.138;8.900;2023-02-10T11:54:29;29.08;;;18.75;;
19036;SDS011;9651;49.138;8.900;2023-02-10T11:58:38;33.28;;;20.40;;
19036;SDS011;9651;49.138;8.900;2023-02-10T12:07:51;26.38;;;19.05;;
19036;SDS011;9651;49.138;8.900;2023-02-10T12:12:06;23.52;;;12.85;;
19036;SDS011;9651;49.138;8.900;2023-02-10T12:16:18;22.70;;;15.95;;
19036;SDS011;9651;49.138;8.900;2023-02-10T12:20:36;28.50;;;19.10;;
19036;SDS011;9651;49.138;8.900;2023-02-10T12:24:51;28.70;;;17.27;;
19036;SDS011;9651;49.138;8.900;2023-02-10T12:29:09;28.77;;;17.97;;
19036;SDS011;9651;49.138;8.900;2023-02-10T12:33:31;24.47;;;17.07;;
19036;SDS011;9651;49.138;8.900;2023-02-10T12:37:48;31.23;;;20.17;;
19036;SDS011;9651;49.138;8.900;2023-02-10T12:41:59;31.17;;;19.27;;
19036;SDS011;9651;49.138;8.900;2023-02-10T12:46:17;21.87;;;13.90;;
19036;SDS011;9651;49.138;8.900;2023-02-10T12:50:30;32.57;;;19.23;;
19036;SDS011;9651;49.138;8.900;2023-02-10T12:54:43;38.87;;;21.27;;
19036;SDS011;9651;49.138;8.900;2023-02-10T12:58:50;34.93;;;24.43;;
19036;SDS011;9651;49.138;8.900;2023-02-10T13:02:58;28.23;;;16.40;;
19036;SDS011;9651;49.138;8.900;2023-02-10T13:07:05;30.53;;;18.23;;
19036;SDS011;9651;49.138;8.900;2023-02-10T13:11:18;38.90;;;18.73;;
19036;SDS011;9651;49.138;8.900;2023-02-10T13:15:25;33.40;;;18.37;;
19036;SDS011;9651;49.138;8.900;2023-02-10T13:19:33;34.23;;;18.87;;
19036;SDS011;9651;49.138;8.900;2023-02-10T13:23:43;33.17;;;18.53;;
19036;SDS011;9651;49.138;8.900;2023-02-10T13:27:52;28.87;;;15.63;;
19036;SDS011;9651;49.138;8.900;2023-02-10T13:32:06;28.37;;;14.53;;
19036;SDS011;9651;49.138;8.900;2023-02-10T13:36:28;33.67;;;18.80;;
19036;SDS011;9651;49.138;8.900;2023-02-10T13:40:45;29.57;;;16.30;;
19036;SDS011;9651;49.138;8.900;2023-02-10T13:44:56;28.93;;;16.53;;
19036;SDS011;9651;49.138;8.900;2023-02-10T13:49:00;33.77;;;17.00;;
19036;SDS011;9651;49.138;8.900;2023-02-10T13:53:04;31.83;;;18.00;;
19036;SDS011;9651;49.138;8.900;2023-02-10T13:57:28;36.27;;;18.00;;
19036;SDS011;9651;49.138;8.900;2023-02-10T14:01:34;32.57;;;17.63;;
19036;SDS011;9651;49.138;8.900;2023-02-10T14:05:39;31.97;;;17.37;;
19036;SDS011;9651;49.138;8.900;2023-02-10T14:10:00;31.77;;;17.03;;
19036;SDS011;9651;49.138;8.900;2023-02-10T14:14:16;30.43;;;17.67;;
19036;SDS011;9651;49.138;8.900;2023-02-10T14:18:23;33.80;;;17.70;;
19036;SDS011;9651;49.138;8.900;2023-02-10T14:22:29;36.07;;;18.00;;
19036;SDS011;9651;49.138;8.900;2023-02-10T14:26:35;26.53;;;14.90;;
19036;SDS011;9651;49.138;8.900;2023-02-10T14:30:38;43.13;;;16.27;;
19036;SDS011;9651;49.138;8.900;2023-02-10T14:34:51;37.23;;;15.87;;
19036;SDS011;9651;49.138;8.900;2023-02-10T14:38:55;29.33;;;16.60;;
19036;SDS011;9651;49.138;8.900;2023-02-10T14:42:59;38.87;;;19.17;;
19036;SDS011;9651;49.138;8.900;2023-02-10T14:47:02;35.73;;;18.00;;
19036;SDS011;9651;49.138;8.900;2023-02-10T14:51:07;34.17;;;17.43;;
19036;SDS011;9651;49.138;8.900;2023-02-10T14:55:23;35.60;;;17.40;;
19036;SDS011;9651;49.138;8.900;2023-02-10T14:59:28;34.37;;;18.37;;
19036;SDS011;9651;49.138;8.900;2023-02-10T15:03:31;31.87;;;16.47;;
19036;SDS011;9651;49.138;8.900;2023-02-10T15:07:37;35.33;;;16.87;;
19036;SDS011;9651;49.138;8.900;2023-02-10T15:11:41;28.37;;;14.83;;
19036;SDS011;9651;49.138;8.900;2023-02-10T15:16:04;35.23;;;18.90;;
19036;SDS011;9651;49.138;8.900;2023-02-10T15:20:20;23.10;;;11.27;;
19036;SDS011;9651;49.138;8.900;2023-02-10T15:24:27;24.07;;;13.87;;
19036;SDS011;9651;49.138;8.900;2023-02-10T15:28:30;27.17;;;14.57;;
19036;SDS011;9651;49.138;8.900;2023-02-10T15:32:33;28.73;;;13.73;;
19036;SDS011;9651;49.138;8.900;2023-02-10T15:36:35;29.83;;;16.10;;
19036;SDS011;9651;49.138;8.900;2023-02-10T15:40:51;33.93;;;16.37;;
19036;SDS011;9651;49.138;8.900;2023-02-10T15:45:01;31.27;;;14.57;;
19036;SDS011;9651;49.138;8.900;2023-02-10T15:49:14;43.00;;;21.13;;
19036;SDS011;9651;49.138;8.900;2023-02-10T15:53:19;36.67;;;16.53;;
19036;SDS011;9651;49.138;8.900;2023-02-10T15:57:24;31.27;;;14.63;;
19036;SDS011;9651;49.138;8.900;2023-02-10T16:01:26;31.70;;;14.47;;
19036;SDS011;9651;49.138;8.900;2023-02-10T16:05:28;30.40;;;13.80;;
19036;SDS011;9651;49.138;8.900;2023-02-10T16:09:30;25.93;;;14.27;;
19036;SDS011;9651;49.138;8.900;2023-02-10T16:13:34;28.07;;;13.87;;
19036;SDS011;9651;49.138;8.900;2023-02-10T16:17:37;27.70;;;14.33;;
19036;SDS011;9651;49.138;8.900;2023-02-10T16:21:40;36.13;;;16.37;;
19036;SDS011;9651;49.138;8.900;2023-02-10T16:25:43;33.60;;;17.03;;
19036;SDS011;9651;49.138;8.900;2023-02-10T16:29:46;34.47;;;16.30;;
19036;SDS011;9651;49.138;8.900;2023-02-10T16:33:48;28.60;;;14.47;;
19036;SDS011;9651;49.138;8.900;2023-02-10T16:37:50;26.27;;;12.53;;
19036;SDS011;9651;49.138;8.900;2023-02-10T16:41:53;28.97;;;12.43;;
19036;SDS011;9651;49.138;8.900;2023-02-10T16:45:57;31.40;;;13.87;;
19036;SDS011;9651;49.138;8.900;2023-02-10T16:49:59;31.57;;;15.00;;
19036;SDS011;9651;49.138;8.900;2023-02-10T16:54:01;27.07;;;13.57;;
19036;SDS011;9651;49.138;8.900;2023-02-10T16:58:11;29.17;;;15.00;;
19036;SDS011;9651;49.138;8.900;2023-02-10T17:02:16;30.13;;;14.63;;
19036;SDS011;9651;49.138;8.900;2023-02-10T17:06:18;27.80;;;13.10;;
19036;SDS011;9651;49.138;8.900;2023-02-10T17:10:23;31.27;;;14.00;;
19036;SDS011;9651;49.138;8.900;2023-02-10T17:14:26;28.23;;;13.53;;
19036;SDS011;9651;49.138;8.900;2023-02-10T17:18:29;28.07;;;13.00;;
19036;SDS011;9651;49.138;8.900;2023-02-10T17:22:31;27.93;;;12.70;;
19036;SDS011;9651;49.138;8.900;2023-02-10T17:26:33;31.63;;;15.13;;
19036;SDS011;9651;49.138;8.900;2023-02-10T17:30:35;31.17;;;14.20;;
19036;SDS011;9651;49.138;8.900;2023-02-10T17:34:40;29.03;;;13.87;;
19036;SDS011;9651;49.138;8.900;2023-02-10T17:38:42;36.30;;;16.80;;
19036;SDS011;9651;49.138;8.900;2023-02-10T17:42:50;38.63;;;18.17;;
19036;SDS011;9651;49.138;8.900;2023-02-10T17:46:52;37.93;;;17.93;;
19036;SDS011;9651;49.138;8.900;2023-02-10T17:51:01;29.83;;;15.50;;
19036;SDS011;9651;49.138;8.900;2023-02-10T17:55:04;30.67;;;14.97;;
19036;SDS011;9651;49.138;8.900;2023-02-10T17:59:07;31.73;;;14.57;;
19036;SDS011;9651;49.138;8.900;2023-02-10T18:03:09;30.33;;;14.53;;
19036;SDS011;9651;49.138;8.900;2023-02-10T18:07:13;30.70;;;14.40;;
19036;SDS011;9651;49.138;8.900;2023-02-10T18:11:15;36.30;;;16.97;;
19036;SDS011;9651;49.138;8.900;2023-02-10T18:15:17;33.13;;;16.37;;
19036;SDS011;9651;49.138;8.900;2023-02-10T18:19:19;31.67;;;15.23;;
19036;SDS011;9651;49.138;8.900;2023-02-10T18:23:23;35.83;;;16.10;;
19036;SDS011;9651;49.138;8.900;2023-02-10T18:27:25;33.60;;;14.20;;
19036;SDS011;9651;49.138;8.900;2023-02-10T18:31:26;36.57;;;15.27;;
19036;SDS011;9651;49.138;8.900;2023-02-10T18:35:29;31.90;;;15.13;;
19036;SDS011;9651;49.138;8.900;2023-02-10T18:39:34;33.73;;;14.83;;
19036;SDS011;9651;49.138;8.900;2023-02-10T18:43:36;29.17;;;14.77;;
19036;SDS011;9651;49.138;8.900;2023-02-10T18:47:38;33.07;;;15.47;;
19036;SDS011;9651;49.138;8.900;2023-02-10T18:51:40;31.77;;;15.60;;
19036;SDS011;9651;49.138;8.900;2023-02-10T18:55:43;36.33;;;14.90;;
19036;SDS011;9651;49.138;8.900;2023-02-10T18:59:46;35.00;;;14.63;;
19036;SDS011;9651;49.138;8.900;2023-02-10T19:03:48;34.50;;;14.53;;
19036;SDS011;9651;49.138;8.900;2023-02-10T19:07:50;31.97;;;13.83;;
19036;SDS011;9651;49.138;8.900;2023-02-10T19:11:54;32.17;;;15.07;;
19036;SDS011;9651;49.138;8.900;2023-02-10T19:15:56;32.43;;;15.47;;
19036;SDS011;9651;49.138;8.900;2023-02-10T19:19:58;35.63;;;15.90;;
19036;SDS011;9651;49.138;8.900;2023-02-10T19:24:00;36.67;;;17.73;;
19036;SDS011;9651;49.138;8.900;2023-02-10T19:28:04;40.43;;;19.50;;
19036;SDS011;9651;49.138;8.900;2023-02-10T19:32:06;37.07;;;19.80;;
19036;SDS011;9651;49.138;8.900;2023-02-10T19:36:09;31.77;;;16.37;;
19036;SDS011;9651;49.138;8.900;2023-02-10T19:40:12;36.07;;;16.33;;
19036;SDS011;9651;49.138;8.900;2023-02-10T19:44:17;34.90;;;15.13;;
19036;SDS011;9651;49.138;8.900;2023-02-10T19:48:23;36.20;;;16.07;;
19036;SDS011;9651;49.138;8.900;2023-02-10T19:52:26;29.23;;;14.83;;
19036;SDS011;9651;49.138;8.900;2023-02-10T19:56:28;32.87;;;15.50;;
19036;SDS011;9651;49.138;8.900;2023-02-10T20:00:31;29.30;;;14.53;;
19036;SDS011;9651;49.138;8.900;2023-02-10T20:04:35;31.93;;;14.07;;
19036;SDS011;9651;49.138;8.900;2023-02-10T20:08:37;37.00;;;16.87;;
19036;SDS011;9651;49.138;8.900;2023-02-10T20:12:39;32.23;;;15.53;;
19036;SDS011;9651;49.138;8.900;2023-02-10T20:16:43;36.10;;;17.00;;
19036;SDS011;9651;49.138;8.900;2023-02-10T20:20:46;40.37;;;17.37;;
19036;SDS011;9651;49.138;8.900;2023-02-10T20:24:49;37.97;;;17.27;;
19036;SDS011;9651;49.138;8.900;2023-02-10T20:28:51;38.20;;;17.17;;
19036;SDS011;9651;49.138;8.900;2023-02-10T20:32:54;38.97;;;16.20;;
19036;SDS011;9651;49.138;8.900;2023-02-10T20:36:56;41.10;;;18.37;;
19036;SDS011;9651;49.138;8.900;2023-02-10T20:40:59;35.73;;;17.17;;
19036;SDS011;9651;49.138;8.900;2023-02-10T20:45:03;33.40;;;15.80;;
19036;SDS011;9651;49.138;8.900;2023-02-10T20:49:07;32.77;;;15.70;;
19036;SDS011;9651;49.138;8.900;2023-02-10T20:53:09;32.00;;;15.20;;
19036;SDS011;9651;49.138;8.900;2023-02-10T20:57:11;33.77;;;15.10;;
19036;SDS011;9651;49.138;8.900;2023-02-10T21:01:14;32.83;;;15.63;;
19036;SDS011;9651;49.138;8.900;2023-02-10T21:05:18;32.43;;;14.63;;
19036;SDS011;9651;49.138;8.900;2023-02-10T21:09:20;32.67;;;15.13;;
19036;SDS011;9651;49.138;8.900;2023-02-10T21:13:26;37.73;;;16.63;;
19036;SDS011;9651;49.138;8.900;2023-02-10T21:17:28;41.33;;;16.97;;
19036;SDS011;9651;49.138;8.900;2023-02-10T21:21:31;37.53;;;16.10;;
19036;SDS011;9651;49.138;8.900;2023-02-10T21:25:35;36.70;;;15.63;;
19036;SDS011;9651;49.138;8.900;2023-02-10T21:29:37;37.93;;;15.57;;
19036;SDS011;9651;49.138;8.900;2023-02-10T21:33:39;30.30;;;15.10;;
19036;SDS011;9651;49.138;8.900;2023-02-10T21:37:42;39.03;;;15.60;;
19036;SDS011;9651;49.138;8.900;2023-02-10T21:41:44;34.13;;;14.50;;
19036;SDS011;9651;49.138;8.900;2023-02-10T21:45:48;33.17;;;14.40;;
19036;SDS011;9651;49.138;8.900;2023-02-10T21:49:50;34.13;;;14.90;;
19036;SDS011;9651;49.138;8.900;2023-02-10T21:53:54;33.57;;;15.30;;
19036;SDS011;9651;49.138;8.900;2023-02-10T21:57:56;31.23;;;15.47;;
19036;SDS011;9651;49.138;8.900;2023-02-10T22:01:58;32.47;;;15.10;;
19036;SDS011;9651;49.138;8.900;2023-02-10T22:06:00;28.80;;;13.47;;
19036;SDS011;9651;49.138;8.900;2023-02-10T22:10:03;33.63;;;14.13;;
19036;SDS011;9651;49.138;8.900;2023-02-10T22:14:06;33.87;;;15.07;;
19036;SDS011;9651;49.138;8.900;2023-02-10T22:18:08;31.73;;;15.63;;
19036;SDS011;9651;49.138;8.900;2023-02-10T22:22:09;30.37;;;14.47;;
19036;SDS011;9651;49.138;8.900;2023-02-10T22:26:13;32.13;;;15.67;;
19036;SDS011;9651;49.138;8.900;2023-02-10T22:30:16;27.83;;;14.40;;
19036;SDS011;9651;49.138;8.900;2023-02-10T22:34:18;33.87;;;15.03;;
19036;SDS011;9651;49.138;8.900;2023-02-10T22:38:21;32.37;;;14.10;;
19036;SDS011;9651;49.138;8.900;2023-02-10T22:42:24;31.57;;;14.13;;
19036;SDS011;9651;49.138;8.900;2023-02-10T22:46:26;31.90;;;14.13;;
19036;SDS011;9651;49.138;8.900;2023-02-10T22:50:28;28.53;;;13.40;;
19036;SDS011;9651;49.138;8.900;2023-02-10T22:54:31;33.80;;;14.53;;
19036;SDS011;9651;49.138;8.900;2023-02-10T22:58:35;30.70;;;13.90;;
19036;SDS011;9651;49.138;8.900;2023-02-10T23:02:37;27.00;;;13.43;;
19036;SDS011;9651;49.138;8.900;2023-02-10T23:06:43;30.20;;;15.27;;
19036;SDS011;9651;49.138;8.900;2023-02-10T23:10:45;42.07;;;18.17;;
19036;SDS011;9651;49.138;8.900;2023-02-10T23:14:48;49.67;;;20.83;;
19036;SDS011;9651;49.138;8.900;2023-02-10T23:18:50;43.83;;;18.20;;
19036;SDS011;9651;49.138;8.900;2023-02-10T23:22:52;37.50;;;17.03;;
19036;SDS011;9651;49.138;8.900;2023-02-10T23:26:54;41.03;;;17.73;;
19036;SDS011;9651;49.138;8.900;2023-02-10T23:30:58;32.20;;;15.80;;
19036;SDS011;9651;49.138;8.900;2023-02-10T23:35:00;33.40;;;15.47;;
19036;SDS011;9651;49.138;8.900;2023-02-10T23:39:02;34.23;;;15.47;;
19036;SDS011;9651;49.138;8.900;2023-02-10T23:43:05;33.70;;;15.50;;
19036;SDS011;9651;49.138;8.900;2023-02-10T23:47:09;31.67;;;15.63;;
19036;SDS011;9651;49.138;8.900;2023-02-10T23:51:13;32.50;;;14.77;;
19036;SDS011;9651;49.138;8.900;2023-02-10T23:55:16;30.33;;;13.80;;
19036;SDS011;9651;49.138;8.900;2023-02-10T23:59:18;31.53;;;14.97;;
